Aviation Digital Data Service (ADDS)

Output produced by TAFs form (0816 UTC 01 November 2014)
found at http://aviationweather.gov/adds/tafs/
 
KVEL 010540Z 0106/0206 30005KT P6SM FEW120 BKN250 
     FM011200 28006KT P6SM BKN100 
     FM011700 23012G19KT P6SM VCSH SCT060 BKN080 
     FM020200 24010KT P6SM BKN080 BKN150